Time;durP1;ratioP1;P1;durP2;ratioP2;P2;SDS_P1;SDS_P2;PMS_P1;PMS_P2;Temp;Humidity;BMP_temperature;BMP_pressure;BME280_temperature;BME280_humidity;BME280_pressure;Samples;Min_cycle;Max_cycle;Signal;HPM_P1;HPM_P2
2021/09/29 00:01:15;;;;;;;5.15;4.65;;;13.10;99.90;;;;;;6097774;29;20028;-80
2021/09/29 00:04:16;;;;;;;8.68;5.22;;;;;;;;;;6098004;29;20042;-83
2021/09/29 00:07:17;;;;;;;6.82;4.85;;;13.20;99.90;;;;;;6113578;29;20564;-80
2021/09/29 00:10:18;;;;;;;7.95;4.85;;;12.90;99.90;;;;;;6097599;29;20027;-82
2021/09/29 00:13:23;;;;;;;9.07;5.10;;;13.20;99.90;;;;;;6112878;29;20041;-82
2021/09/29 00:16:24;;;;;;;5.13;4.63;;;13.10;99.90;;;;;;6114670;29;20118;-83
2021/09/29 00:19:24;;;;;;;6.07;4.95;;;13.00;99.90;;;;;;6097487;29;20023;-82
2021/09/29 00:22:25;;;;;;;6.15;4.53;;;13.50;99.90;;;;;;6113335;29;20102;-81
2021/09/29 00:25:26;;;;;;;8.20;4.65;;;;;;;;;;6112850;29;20419;-81
2021/09/29 00:28:26;;;;;;;6.88;4.78;;;13.10;99.90;;;;;;6129044;29;20023;-81
2021/09/29 00:34:36;;;;;;;8.50;4.40;;;13.30;99.90;;;;;;6114582;29;20051;-81
2021/09/29 00:37:36;;;;;;;7.60;4.43;;;13.10;99.90;;;;;;6113477;29;20065;-81
2021/09/29 00:40:38;;;;;;;5.47;4.70;;;;;;;;;;6097329;29;20039;-83
2021/09/29 00:43:39;;;;;;;7.97;4.25;;;;;;;;;;6113297;29;20106;-82
2021/09/29 00:46:40;;;;;;;6.60;4.75;;;;;;;;;;6128866;29;20038;-82
2021/09/29 00:49:41;;;;;;;7.43;4.47;;;;;;;;;;6131718;29;20019;-82
2021/09/29 00:52:42;;;;;;;12.73;4.85;;;;;;;;;;6149965;29;20038;-80
2021/09/29 00:55:43;;;;;;;6.88;4.68;;;;;;;;;;6133055;29;20063;-81
2021/09/29 00:58:43;;;;;;;6.15;5.30;;;13.30;99.90;;;;;;6133018;29;20123;-82
2021/09/29 01:01:46;;;;;;;5.57;5.00;;;13.30;99.90;;;;;;6132296;29;20035;-81
2021/09/29 01:04:46;;;;;;;6.72;4.40;;;13.30;99.90;;;;;;6117955;29;20042;-81
2021/09/29 01:07:54;;;;;;;5.15;4.30;;;13.00;99.90;;;;;;6116699;29;20039;-81
2021/09/29 01:10:59;;;;;;;5.28;3.85;;;13.10;99.90;;;;;;6116964;29;20022;-81
2021/09/29 01:14:09;;;;;;;6.30;4.13;;;12.90;99.90;;;;;;6117421;29;20502;-82
2021/09/29 01:17:10;;;;;;;5.72;4.57;;;13.00;99.90;;;;;;6117514;29;20019;-82
2021/09/29 01:20:12;;;;;;;6.80;5.32;;;12.90;99.90;;;;;;6101042;29;20035;-82
2021/09/29 01:23:22;;;;;;;;;;;12.90;99.90;;;;;;6117728;29;20051;-83
2021/09/29 01:26:26;;;;;;;8.40;4.72;;;12.70;99.90;;;;;;6149684;29;20035;-81
2021/09/29 01:29:26;;;;;;;5.72;4.10;;;12.90;99.90;;;;;;6117389;29;20037;-83
2021/09/29 01:32:27;;;;;;;6.80;4.60;;;;;;;;;;6116699;29;20377;-80
2021/09/29 01:35:28;;;;;;;6.45;4.55;;;12.80;99.90;;;;;;6131620;29;20129;-81
2021/09/29 01:38:29;;;;;;;7.95;4.78;;;12.70;99.90;;;;;;6115965;29;20414;-82
2021/09/29 01:41:30;;;;;;;7.45;5.07;;;12.40;99.90;;;;;;6116217;29;20110;-82
2021/09/29 01:44:31;;;;;;;7.55;5.07;;;12.60;99.90;;;;;;6116308;29;20118;-81
2021/09/29 01:47:32;;;;;;;8.10;4.70;;;12.50;99.90;;;;;;6100104;29;20023;-81
2021/09/29 01:50:33;;;;;;;4.72;3.92;;;;;;;;;;6115811;29;20318;-80
2021/09/29 01:53:33;;;;;;;7.35;3.58;;;12.60;99.90;;;;;;6115586;29;20039;-82
2021/09/29 01:56:34;;;;;;;6.43;4.00;;;12.80;99.90;;;;;;6131473;29;20031;-82
2021/09/29 01:59:35;;;;;;;8.63;3.47;;;12.70;99.90;;;;;;6115156;29;20033;-79
2021/09/29 02:02:40;;;;;;;6.90;3.22;;;13.00;99.90;;;;;;6117092;29;20109;-81
2021/09/29 02:05:41;;;;;;;5.72;3.10;;;;;;;;;;6115825;29;20386;-81
2021/09/29 02:08:42;;;;;;;7.18;3.20;;;;;;;;;;6115431;29;20019;-82
2021/09/29 02:11:43;;;;;;;3.35;2.92;;;13.20;99.90;;;;;;6131169;29;20498;-82
2021/09/29 02:14:44;;;;;;;8.07;3.65;;;13.20;99.90;;;;;;6115187;29;20035;-83
2021/09/29 02:17:44;;;;;;;3.50;2.75;;;13.40;99.90;;;;;;6130699;29;20065;-81
2021/09/29 02:20:45;;;;;;;6.93;2.83;;;13.50;99.90;;;;;;6099693;29;20085;-81
2021/09/29 02:23:46;;;;;;;4.50;2.38;;;;;;;;;;6115257;29;20034;-83
2021/09/29 02:26:47;;;;;;;4.75;2.22;;;13.50;99.90;;;;;;6114803;29;20486;-83
2021/09/29 02:29:47;;;;;;;6.88;2.30;;;13.90;99.90;;;;;;6114834;29;20031;-81
2021/09/29 02:32:49;;;;;;;2.20;2.00;;;;;;;;;;6114725;29;20035;-80
2021/09/29 02:35:49;;;;;;;5.35;2.20;;;13.80;99.90;;;;;;6147616;29;20089;-81
2021/09/29 02:38:51;;;;;;;3.47;2.50;;;;;;;;;;6098881;29;20035;-81
2021/09/29 02:41:52;;;;;;;4.22;2.38;;;13.70;99.90;;;;;;6114607;29;20027;-83
2021/09/29 02:44:52;;;;;;;4.90;2.55;;;13.60;99.90;;;;;;6114813;29;20043;-82
2021/09/29 02:47:53;;;;;;;3.85;2.20;;;;;;;;;;6114562;29;20102;-81
2021/09/29 02:50:54;;;;;;;4.63;2.47;;;;;;;;;;6130149;29;20034;-81
2021/09/29 02:53:57;;;;;;;4.95;2.15;;;;;;;;;;6130192;29;20123;-83
2021/09/29 02:56:57;;;;;;;;;;;13.70;99.90;;;;;;6147905;29;20496;-82
2021/09/29 02:59:58;;;;;;;4.93;2.60;;;;;;;;;;6130678;29;19950;-81
2021/09/29 03:02:59;;;;;;;4.05;1.92;;;;;;;;;;6147301;29;20098;-82
2021/09/29 03:06:00;;;;;;;6.03;2.38;;;;;;;;;;6113973;29;20075;-82
2021/09/29 03:09:01;;;;;;;2.35;1.92;;;;;;;;;;6147136;29;20381;-83
2021/09/29 03:12:02;;;;;;;2.90;2.30;;;13.90;99.90;;;;;;6128717;29;20074;-83
2021/09/29 03:15:03;;;;;;;5.13;2.00;;;13.90;99.90;;;;;;6113924;29;20373;-82
2021/09/29 03:18:03;;;;;;;3.58;2.20;;;13.90;99.90;;;;;;6114042;29;20031;-83
2021/09/29 03:21:04;;;;;;;3.65;2.55;;;14.00;99.90;;;;;;6114085;29;20454;-81
2021/09/29 03:24:05;;;;;;;5.57;2.20;;;14.00;99.90;;;;;;6114011;29;20478;-80
2021/09/29 03:27:05;;;;;;;4.55;2.20;;;14.20;99.90;;;;;;6097761;29;20083;-81
2021/09/29 03:30:06;;;;;;;3.65;2.40;;;14.40;99.90;;;;;;6113772;29;20062;-81
2021/09/29 03:33:07;;;;;;;5.75;2.40;;;14.10;99.90;;;;;;6098418;29;20430;-81
2021/09/29 03:36:07;;;;;;;3.85;2.53;;;14.10;99.90;;;;;;6113872;29;20031;-82
2021/09/29 03:39:08;;;;;;;4.47;2.60;;;14.30;99.90;;;;;;6097739;29;20035;-80
2021/09/29 03:42:09;;;;;;;5.20;2.55;;;;;;;;;;6113695;29;20055;-81
2021/09/29 03:45:10;;;;;;;3.75;2.35;;;14.10;99.90;;;;;;6146615;29;20031;-81
2021/09/29 03:48:11;;;;;;;6.53;2.60;;;13.20;99.90;;;;;;6113964;29;20035;-81
2021/09/29 03:51:12;;;;;;;6.95;2.70;;;13.80;99.90;;;;;;6097417;29;20122;-82
2021/09/29 03:54:13;;;;;;;4.50;2.40;;;;;;;;;;6113369;29;20458;-81
2021/09/29 03:57:13;;;;;;;3.65;2.53;;;13.90;99.90;;;;;;6129594;29;20393;-82
2021/09/29 04:00:14;;;;;;;5.38;2.58;;;13.80;99.90;;;;;;6097541;29;20039;-82
2021/09/29 04:03:15;;;;;;;3.55;2.28;;;13.80;99.90;;;;;;6113428;29;20043;-81
2021/09/29 04:06:15;;;;;;;3.67;2.53;;;13.70;99.90;;;;;;6113585;29;20434;-80
2021/09/29 04:09:16;;;;;;;4.05;2.92;;;13.70;99.90;;;;;;6113412;29;20034;-83
2021/09/29 04:12:16;;;;;;;6.45;2.58;;;13.60;99.90;;;;;;6129049;29;20707;-83
2021/09/29 04:15:17;;;;;;;5.15;2.60;;;13.60;99.90;;;;;;6112726;29;20039;-82
2021/09/29 04:18:18;;;;;;;3.78;2.78;;;13.40;99.90;;;;;;6113307;29;20063;-81
2021/09/29 04:21:18;;;;;;;3.65;2.50;;;13.40;99.90;;;;;;6113573;29;20535;-81
2021/09/29 04:24:19;;;;;;;5.38;3.05;;;;;;;;;;6117336;29;20081;-81
2021/09/29 04:27:20;;;;;;;5.63;2.90;;;;;;;;;;6133423;29;20496;-81
2021/09/29 04:30:21;;;;;;;5.25;2.90;;;;;;;;;;6133654;29;20398;-81
2021/09/29 04:33:22;;;;;;;3.70;2.83;;;;;;;;;;6117486;29;20035;-79
2021/09/29 04:36:23;;;;;;;5.63;2.95;;;12.60;99.90;;;;;;6121393;29;20062;-81
2021/09/29 04:39:23;;;;;;;4.45;2.90;;;12.60;99.90;;;;;;6120769;29;20429;-82
2021/09/29 04:42:24;;;;;;;5.22;3.05;;;12.30;99.90;;;;;;6133770;29;20035;-82
2021/09/29 04:45:24;;;;;;;4.68;2.45;;;12.50;99.90;;;;;;6101126;29;20035;-81
2021/09/29 04:48:26;;;;;;;4.95;2.70;;;12.50;99.90;;;;;;6133039;29;20062;-81
2021/09/29 04:51:26;;;;;;;6.03;3.28;;;12.40;99.90;;;;;;6117057;29;20090;-83
2021/09/29 04:54:27;;;;;;;6.90;3.25;;;12.10;99.90;;;;;;6117097;29;20043;-82
2021/09/29 04:57:29;;;;;;;4.40;2.53;;;12.30;99.90;;;;;;6116909;29;20039;-81
2021/09/29 05:00:33;;;;;;;7.03;3.20;;;12.30;99.90;;;;;;6117294;29;20031;-80
2021/09/29 05:03:33;;;;;;;8.35;3.00;;;12.10;99.90;;;;;;6114104;29;20035;-83
2021/09/29 05:06:34;;;;;;;5.63;3.03;;;12.00;99.90;;;;;;6131078;29;20457;-82
2021/09/29 05:09:35;;;;;;;6.82;2.92;;;12.00;99.90;;;;;;6116562;29;20043;-82
2021/09/29 05:12:36;;;;;;;3.35;2.72;;;12.00;99.90;;;;;;6131507;29;20023;-80
2021/09/29 05:15:36;;;;;;;4.72;2.97;;;12.10;99.90;;;;;;6116609;29;20466;-80
2021/09/29 05:18:37;;;;;;;5.72;2.78;;;12.20;99.90;;;;;;6116250;29;20027;-82
2021/09/29 05:21:38;;;;;;;6.57;2.97;;;;;;;;;;6116328;29;20118;-80
2021/09/29 05:24:38;;;;;;;3.80;2.50;;;12.10;99.90;;;;;;6149519;29;20351;-80
2021/09/29 05:27:39;;;;;;;2.67;2.47;;;;;;;;;;6099927;29;20061;-80
2021/09/29 05:30:40;;;;;;;6.28;3.00;;;12.10;99.90;;;;;;6149503;29;20038;-85
2021/09/29 05:33:41;;;;;;;7.18;2.95;;;12.10;99.90;;;;;;6131507;28;20571;-84
2021/09/29 05:36:45;;;;;;;4.15;2.78;;;12.40;99.90;;;;;;6115694;29;20086;-80
2021/09/29 05:39:45;;;;;;;6.13;3.15;;;12.10;99.90;;;;;;6101385;29;20043;-84
2021/09/29 05:42:46;;;;;;;6.82;3.20;;;12.20;99.90;;;;;;6115821;29;20114;-82
2021/09/29 05:45:47;;;;;;;6.25;3.00;;;12.20;99.90;;;;;;6112680;29;20032;-81
2021/09/29 05:48:48;;;;;;;7.40;3.03;;;;;;;;;;6115429;29;20035;-80
2021/09/29 05:51:48;;;;;;;6.32;2.97;;;12.30;99.90;;;;;;6115513;29;20366;-84
2021/09/29 05:54:49;;;;;;;5.03;2.92;;;;;;;;;;6099984;29;20050;-83
2021/09/29 05:57:50;;;;;;;3.85;2.40;;;12.40;99.90;;;;;;6115906;29;20465;-84
2021/09/29 06:00:51;;;;;;;5.22;2.30;;;;;;;;;;6113355;29;20029;-81
2021/09/29 06:03:51;;;;;;;8.20;2.50;;;12.90;99.90;;;;;;6148906;29;20425;-83
2021/09/29 06:06:52;;;;;;;5.93;2.63;;;;;;;;;;6113570;29;20105;-83
2021/09/29 06:09:53;;;;;;;4.22;2.50;;;13.50;99.90;;;;;;6131399;29;20163;-85
2021/09/29 06:12:54;;;;;;;6.25;3.42;;;;;;;;;;6114393;29;20452;-84
2021/09/29 06:15:55;;;;;;;4.88;2.25;;;13.90;99.90;;;;;;6131377;29;20031;-84
2021/09/29 06:18:56;;;;;;;8.20;2.50;;;;;;;;;;6115483;29;20518;-86
2021/09/29 06:21:56;;;;;;;3.97;2.20;;;15.00;99.90;;;;;;6115793;29;20027;-83
2021/09/29 06:24:57;;;;;;;6.90;2.70;;;15.60;99.90;;;;;;6099188;29;20501;-81
2021/09/29 06:27:58;;;;;;;7.57;2.47;;;;;;;;;;6098999;29;20023;-81
2021/09/29 06:30:58;;;;;;;4.35;2.45;;;16.30;99.90;;;;;;6130611;29;20061;-82
2021/09/29 06:33:59;;;;;;;7.40;3.13;;;16.10;99.90;;;;;;6113926;29;20038;-81
2021/09/29 06:37:00;;;;;;;5.05;2.88;;;15.90;99.90;;;;;;6099210;29;20030;-84
2021/09/29 06:40:00;;;;;;;5.20;2.67;;;16.40;99.90;;;;;;6114977;29;20038;-85
2021/09/29 06:43:04;;;;;;;3.63;2.30;;;17.40;99.90;;;;;;6115215;29;20343;-84
2021/09/29 06:46:04;;;;;;;4.80;2.40;;;17.80;99.90;;;;;;6114438;29;20045;-83
2021/09/29 06:49:05;;;;;;;4.82;2.47;;;17.80;99.90;;;;;;6114362;29;20039;-83
2021/09/29 06:52:06;;;;;;;5.50;2.40;;;17.80;99.90;;;;;;6114450;29;20023;-83
2021/09/29 06:55:07;;;;;;;5.18;2.40;;;18.10;99.90;;;;;;6114183;29;20445;-83
2021/09/29 06:58:07;;;;;;;3.28;2.20;;;18.40;99.90;;;;;;6098910;29;20090;-84
2021/09/29 07:01:08;;;;;;;4.20;2.13;;;19.10;99.90;;;;;;6113822;29;20422;-82
2021/09/29 07:04:09;;;;;;;5.57;2.40;;;18.60;99.90;;;;;;6098294;29;20035;-83
2021/09/29 07:07:09;;;;;;;5.53;2.28;;;18.90;99.90;;;;;;6113916;29;20370;-83
2021/09/29 07:10:10;;;;;;;4.47;1.98;;;18.40;99.90;;;;;;6114358;29;20041;-83
2021/09/29 07:13:11;;;;;;;3.60;2.40;;;18.20;99.90;;;;;;6114232;29;20031;-83
2021/09/29 07:16:18;;;;;;;4.90;2.28;;;18.50;99.90;;;;;;6113916;29;20070;-84
2021/09/29 07:19:26;;;;;;;6.78;2.72;;;19.10;99.90;;;;;;6099528;29;20023;-84
2021/09/29 07:22:27;;;;;;;4.05;2.80;;;19.00;99.90;;;;;;6103234;29;20385;-84
2021/09/29 07:25:29;;;;;;;5.18;3.20;;;18.30;99.90;;;;;;6112973;29;20052;-84
2021/09/29 07:28:30;;;;;;;;;;;18.60;99.90;;;;;;6086553;29;20381;-83
2021/09/29 07:31:31;;;;;;;5.45;2.17;;;18.30;99.90;;;;;;6113296;29;19906;-85
2021/09/29 07:34:31;;;;;;;5.15;2.30;;;19.80;99.90;;;;;;6108461;29;20043;-82
2021/09/29 07:37:32;;;;;;;7.05;3.20;;;20.10;99.90;;;;;;6113410;29;20050;-83
2021/09/29 07:40:33;;;;;;;4.38;2.35;;;20.90;97.30;;;;;;6113446;29;20035;-85
2021/09/29 07:43:33;;;;;;;3.83;2.00;;;21.60;96.80;;;;;;6113348;29;20414;-86
2021/09/29 07:46:35;;;;;;;4.82;2.50;;;21.60;93.90;;;;;;6113429;29;20481;-84
2021/09/29 07:49:35;;;;;;;3.97;1.83;;;21.20;92.90;;;;;;6113857;29;20035;-84
2021/09/29 07:52:36;;;;;;;4.82;2.13;;;20.40;93.50;;;;;;6113171;29;20457;-84
2021/09/29 07:55:37;;;;;;;4.18;2.55;;;19.50;94.50;;;;;;6097110;29;20054;-84
2021/09/29 07:58:37;;;;;;;5.55;2.15;;;19.30;95.80;;;;;;6114744;29;20102;-85
2021/09/29 08:01:38;;;;;;;8.23;2.15;;;19.00;96.60;;;;;;6117007;29;20062;-84
2021/09/29 08:04:39;;;;;;;5.82;2.17;;;18.70;99.90;;;;;;6118477;29;20082;-85
2021/09/29 08:07:39;;;;;;;3.42;2.03;;;18.10;99.90;;;;;;6117712;29;20043;-85
2021/09/29 08:10:40;;;;;;;3.90;2.17;;;;;;;;;;6122049;29;20082;-82
2021/09/29 08:13:41;;;;;;;6.60;2.35;;;18.10;99.90;;;;;;6127163;29;20027;-85
2021/09/29 08:16:41;;;;;;;5.53;2.20;;;18.00;99.90;;;;;;6118576;29;20035;-83
2021/09/29 08:19:42;;;;;;;5.50;2.30;;;17.80;99.90;;;;;;6117785;29;20023;-82
2021/09/29 08:22:45;;;;;;;3.33;2.05;;;;;;;;;;6101946;29;20046;-84
2021/09/29 08:32:40;;;;;;;5.45;2.30;;;18.00;98.40;;;;;;6122349;29;20031;-83
2021/09/29 08:38:58;;;;;;;7.68;2.35;;;17.80;99.10;;;;;;6119771;29;20060;-85
2021/09/29 08:42:57;;;;;;;5.75;2.28;;;18.20;99.10;;;;;;6118632;29;20031;-84
2021/09/29 08:45:23;;;;;;;4.65;2.17;;;20.30;99.90;;;;;;6112316;29;20094;-83
2021/09/29 08:51:56;;;;;;;11.48;3.58;;;21.90;94.30;;;;;;6120392;29;20035;-84
2021/09/29 08:55:35;;;;;;;8.15;2.40;;;22.60;92.90;;;;;;6121588;29;20138;-86
2021/09/29 09:18:25;;;;;;;9.40;2.28;;;19.30;93.10;;;;;;6121793;29;20031;-86
2021/09/29 09:21:28;;;;;;;5.38;2.50;;;18.90;94.70;;;;;;6116803;29;20033;-85
2021/09/29 09:24:31;;;;;;;8.65;2.75;;;19.00;95.00;;;;;;6101003;29;20051;-85
2021/09/29 09:27:46;;;;;;;6.45;2.25;;;19.10;94.80;;;;;;6115456;29;20797;-84
2021/09/29 09:30:46;;;;;;;6.22;2.47;;;19.10;95.00;;;;;;6100654;29;20058;-85
2021/09/29 09:33:59;;;;;;;7.43;2.80;;;19.00;94.80;;;;;;6116179;29;20051;-85
2021/09/29 09:36:59;;;;;;;;;;;19.90;94.80;;;;;;6102245;29;20425;-85
2021/09/29 09:40:11;;;;;;;3.92;2.38;;;20.60;92.20;;;;;;6131952;29;19962;-85
2021/09/29 09:43:29;;;;;;;3.90;2.30;;;22.00;98.00;;;;;;6121708;29;20374;-83
2021/09/29 09:46:30;;;;;;;6.40;2.40;;;22.10;92.20;;;;;;6134952;29;20097;-85
2021/09/29 09:49:44;;;;;;;6.03;2.10;;;22.20;88.60;;;;;;6118599;29;20027;-85
2021/09/29 09:52:45;;;;;;;4.40;2.00;;;22.10;89.00;;;;;;6133252;29;20677;-86
2021/09/29 09:55:45;;;;;;;6.30;2.10;;;22.90;89.80;;;;;;6115110;29;20035;-83
2021/09/29 09:58:50;;;;;;;3.78;2.10;;;23.30;87.80;;;;;;6088266;29;20118;-85
2021/09/29 10:01:50;;;;;;;6.32;2.22;;;23.00;86.90;;;;;;6096628;29;20027;-85
2021/09/29 10:04:51;;;;;;;6.07;2.33;;;22.90;86.50;;;;;;6113581;29;20485;-86
2021/09/29 10:07:52;;;;;;;5.22;2.42;;;23.10;86.20;;;;;;6097523;29;20027;-85
2021/09/29 10:24:11;;;;;;;4.70;2.30;;;25.00;83.70;;;;;;6131131;29;20027;-88
2021/09/29 10:27:14;;;;;;;4.95;2.22;;;25.10;77.00;;;;;;6114217;29;20055;-87
2021/09/29 10:30:28;;;;;;;4.25;2.20;;;25.30;76.70;;;;;;6097265;29;20500;-87
2021/09/29 10:33:29;;;;;;;4.75;2.20;;;25.20;74.20;;;;;;6113031;29;20050;-87
2021/09/29 10:43:01;;;;;;;6.65;2.78;;;24.20;76.80;;;;;;6117626;29;20418;-85
2021/09/29 10:49:29;;;;;;;4.68;2.28;;;24.80;77.30;;;;;;6112739;29;20027;-86
2021/09/29 11:02:47;;;;;;;5.43;2.30;;;24.80;73.70;;;;;;6114577;29;20031;-86
2021/09/29 11:29:17;;;;;;;4.50;2.17;;;21.70;98.60;;;;;;6119204;29;20031;-83
2021/09/29 11:32:35;;;;;;;5.70;2.38;;;21.80;92.10;;;;;;6118447;28;20035;-85
2021/09/29 12:09:04;;;;;;;7.70;2.50;;;22.50;83.40;;;;;;6117046;29;20070;-80
2021/09/29 12:12:18;;;;;;;3.92;2.35;;;22.70;81.40;;;;;;6117856;29;20119;-80
2021/09/29 12:15:18;;;;;;;5.25;1.85;;;22.20;79.90;;;;;;6099258;29;20042;-80
2021/09/29 12:18:20;;;;;;;6.05;2.38;;;21.60;83.10;;;;;;6097386;29;20039;-85
2021/09/29 12:21:40;;;;;;;3.95;2.25;;;21.00;84.50;;;;;;6112751;29;20470;-81
2021/09/29 12:24:46;;;;;;;5.43;2.65;;;20.70;88.90;;;;;;6112716;29;20030;-81
2021/09/29 12:34:25;;;;;;;6.20;2.63;;;20.60;90.30;;;;;;6116245;29;20035;-81
2021/09/29 12:37:26;;;;;;;5.38;2.30;;;20.50;89.10;;;;;;6113469;29;20055;-84
2021/09/29 12:40:28;;;;;;;3.63;2.50;;;20.70;90.50;;;;;;6112610;29;20051;-81
2021/09/29 12:43:29;;;;;;;8.20;2.10;;;20.50;86.70;;;;;;6097811;28;20106;-83
2021/09/29 12:46:29;;;;;;;4.28;2.15;;;19.90;90.20;;;;;;6131846;29;20038;-84
2021/09/29 12:49:30;;;;;;;7.43;2.17;;;19.70;93.40;;;;;;6117231;29;20051;-83
2021/09/29 12:52:33;;;;;;;6.05;2.53;;;19.40;94.20;;;;;;6116386;29;20031;-86
2021/09/29 12:55:38;;;;;;;7.93;2.15;;;19.30;92.20;;;;;;6118543;29;20126;-90
2021/09/29 12:58:53;;;;;;;6.55;2.03;;;19.60;96.40;;;;;;6103717;29;20050;-90
2021/09/29 13:01:54;;;;;;;7.80;2.40;;;21.40;90.50;;;;;;6116580;29;20047;-87
2021/09/29 13:04:58;;;;;;;3.97;2.00;;;19.60;94.80;;;;;;6100625;29;20027;-88
2021/09/29 13:07:59;;;;;;;3.80;1.98;;;20.10;91.40;;;;;;6117537;29;20039;-87
2021/09/29 13:11:00;;;;;;;3.88;2.03;;;20.00;90.90;;;;;;6113666;29;20106;-87
2021/09/29 13:14:01;;;;;;;5.38;2.38;;;;;;;;;;6096480;29;20039;-89
2021/09/29 13:17:02;;;;;;;6.53;2.25;;;19.30;90.40;;;;;;6117312;29;20063;-87
2021/09/29 13:20:15;;;;;;;5.70;2.67;;;19.40;92.00;;;;;;6117237;29;20023;-87
2021/09/29 13:23:40;;;;;;;5.55;2.20;;;19.10;92.90;;;;;;6118654;29;20037;-88
2021/09/29 13:36:34;;;;;;;5.63;1.90;;;18.80;94.80;;;;;;6120868;29;20039;-83
2021/09/29 13:39:34;;;;;;;5.22;2.20;;;18.50;96.10;;;;;;6102991;29;20023;-85
2021/09/29 13:42:35;;;;;;;2.45;1.52;;;18.20;97.40;;;;;;6116233;29;20468;-84
2021/09/29 13:45:36;;;;;;;8.35;2.65;;;;;;;;;;6113343;29;20035;-85
2021/09/29 13:48:37;;;;;;;3.22;1.65;;;17.50;99.90;;;;;;6116202;29;20154;-86
2021/09/29 13:51:39;;;;;;;4.22;1.98;;;17.30;99.90;;;;;;6115928;29;20031;-85
2021/09/29 13:54:41;;;;;;;2.03;1.20;;;17.60;99.90;;;;;;6115426;28;20458;-84
2021/09/29 13:57:47;;;;;;;2.67;2.17;;;17.30;99.90;;;;;;6100095;29;20029;-85
2021/09/29 14:30:39;;;;;;;2.53;1.90;;;;;;;;;;6119621;29;20032;-82
2021/09/29 14:33:44;;;;;;;2.53;1.83;;;16.50;99.90;;;;;;6115249;29;20031;-83
2021/09/29 14:36:45;;;;;;;2.95;1.80;;;16.40;99.90;;;;;;6116632;29;20019;-85
2021/09/29 14:39:46;;;;;;;1.85;1.35;;;;;;;;;;6099080;29;20026;-82
2021/09/29 14:42:46;;;;;;;1.90;1.50;;;16.50;99.90;;;;;;6130378;29;20038;-81
2021/09/29 14:45:47;;;;;;;3.17;1.70;;;;;;;;;;6114549;29;20027;-82
2021/09/29 14:48:48;;;;;;;3.13;2.10;;;16.70;99.90;;;;;;6130845;29;20458;-83
2021/09/29 14:51:49;;;;;;;1.85;1.70;;;16.80;99.90;;;;;;6113824;29;20118;-82
2021/09/29 14:54:50;;;;;;;2.55;1.70;;;;;;;;;;6098488;29;20039;-82
2021/09/29 14:57:50;;;;;;;1.30;1.20;;;17.30;99.90;;;;;;6113986;29;20054;-81
2021/09/29 15:00:51;;;;;;;3.67;1.95;;;17.50;99.90;;;;;;6098501;29;20034;-82
2021/09/29 15:03:53;;;;;;;3.13;1.98;;;17.60;99.90;;;;;;6098564;29;20036;-81
2021/09/29 15:06:54;;;;;;;;;;;17.60;99.90;;;;;;6129644;28;20118;-83
2021/09/29 15:09:55;;;;;;;3.83;1.50;;;17.30;99.90;;;;;;6113829;29;20653;-82
2021/09/29 15:13:00;;;;;;;3.95;1.95;;;17.10;99.90;;;;;;6098512;29;20102;-83
2021/09/29 15:16:06;;;;;;;3.47;1.55;;;16.50;99.90;;;;;;6114368;29;20102;-81
2021/09/29 15:22:26;;;;;;;1.88;1.42;;;15.20;99.90;;;;;;6114640;29;20411;-82
2021/09/29 15:32:23;;;;;;;3.10;1.70;;;14.80;99.90;;;;;;6061351;29;20060;-82
2021/09/29 15:48:46;;;;;;;1.80;1.65;;;14.90;99.90;;;;;;6072767;29;20067;-82
2021/09/29 16:01:14;;;;;;;1.75;1.60;;;14.60;99.90;;;;;;6072404;29;20037;-82
2021/09/29 16:11:14;;;;;;;;;;;14.50;99.90;;;;;;6115053;29;20027;-83
2021/09/29 16:33:29;;;;;;;6.15;3.55;;;13.30;99.90;;;;;;6119718;29;20053;-81
2021/09/29 16:36:30;;;;;;;3.75;2.83;;;13.20;99.90;;;;;;6121196;29;20039;-82
2021/09/29 16:39:33;;;;;;;3.05;2.20;;;13.30;99.90;;;;;;6101012;29;20063;-81
2021/09/29 16:42:33;;;;;;;1.95;1.85;;;13.10;99.90;;;;;;6117375;29;20122;-82
2021/09/29 16:45:34;;;;;;;2.22;1.88;;;;;;;;;;6133175;29;20023;-85
2021/09/29 16:48:36;;;;;;;2.45;2.05;;;13.00;99.90;;;;;;6133149;29;20526;-83
2021/09/29 16:51:50;;;;;;;2.72;1.70;;;12.90;99.90;;;;;;6117163;29;20378;-84
2021/09/29 16:54:53;;;;;;;3.47;2.03;;;13.00;99.90;;;;;;6117312;29;20027;-82
2021/09/29 16:58:07;;;;;;;2.28;1.70;;;13.20;99.90;;;;;;6130068;29;20086;-85
2021/09/29 17:01:09;;;;;;;3.53;1.90;;;13.10;99.90;;;;;;6104361;29;20028;-85
2021/09/29 17:04:10;;;;;;;4.03;2.60;;;12.90;99.90;;;;;;6101358;29;20120;-82
2021/09/29 17:07:11;;;;;;;3.40;2.60;;;;;;;;;;6100703;29;20035;-84
2021/09/29 17:10:14;;;;;;;2.35;1.73;;;13.00;99.90;;;;;;6113802;29;20028;-83
2021/09/29 17:13:17;;;;;;;2.53;1.90;;;13.00;99.90;;;;;;6122733;29;20110;-84
2021/09/29 17:16:22;;;;;;;1.90;1.70;;;13.00;99.90;;;;;;6119478;29;20055;-86
2021/09/29 17:19:23;;;;;;;1.60;1.50;;;13.00;99.90;;;;;;6101106;29;20473;-83
2021/09/29 17:22:24;;;;;;;1.90;1.80;;;;;;;;;;6106843;29;20028;-84
2021/09/29 17:25:28;;;;;;;4.72;2.08;;;12.80;99.90;;;;;;6116271;29;20094;-82
2021/09/29 17:28:28;;;;;;;3.17;1.95;;;13.00;99.90;;;;;;6112798;29;20454;-83
2021/09/29 17:34:51;;;;;;;2.70;1.98;;;13.00;99.90;;;;;;6133813;29;20039;-85
2021/09/29 17:54:23;;;;;;;3.35;1.85;;;12.70;99.90;;;;;;6119857;29;20420;-83
2021/09/29 17:57:26;;;;;;;3.03;2.00;;;12.70;99.90;;;;;;6114866;29;20026;-82
2021/09/29 18:00:45;;;;;;;2.83;2.30;;;12.70;99.90;;;;;;6114612;29;20081;-83
2021/09/29 18:03:57;;;;;;;3.05;2.60;;;13.00;99.90;;;;;;6131045;29;20055;-84
2021/09/29 18:07:13;;;;;;;;;;;13.00;99.90;;;;;;6117761;29;20042;-83
2021/09/29 18:10:13;;;;;;;5.82;3.67;;;12.90;99.90;;;;;;6116407;29;20313;-82
2021/09/29 18:13:14;;;;;;;5.20;4.03;;;12.90;99.90;;;;;;6115228;29;20039;-87
2021/09/29 18:16:15;;;;;;;5.47;4.30;;;13.10;99.90;;;;;;6114747;29;20043;-83
2021/09/29 18:19:19;;;;;;;5.63;4.15;;;13.00;99.90;;;;;;6097188;29;20470;-82
2021/09/29 18:22:20;;;;;;;5.18;4.00;;;13.00;99.90;;;;;;6113987;29;20034;-83
2021/09/29 18:25:20;;;;;;;4.97;3.17;;;12.90;99.90;;;;;;6113436;29;20051;-82
2021/09/29 18:28:21;;;;;;;5.85;3.45;;;12.90;99.90;;;;;;6098927;29;20020;-88
2021/09/29 18:31:22;;;;;;;6.03;3.55;;;;;;;;;;6114642;29;20062;-83
2021/09/29 18:34:26;;;;;;;3.90;3.45;;;;;;;;;;6126462;29;20136;-83
2021/09/29 18:37:26;;;;;;;4.53;3.20;;;13.00;99.90;;;;;;6114213;29;20038;-84
2021/09/29 18:40:27;;;;;;;3.65;2.65;;;12.90;99.90;;;;;;6113398;29;20027;-82
2021/09/29 18:43:28;;;;;;;4.30;2.13;;;12.90;99.90;;;;;;6096735;29;20529;-83
2021/09/29 18:46:32;;;;;;;1.98;1.77;;;12.90;99.90;;;;;;6098557;29;20034;-84
2021/09/29 18:49:33;;;;;;;2.85;2.00;;;12.70;99.90;;;;;;6113245;29;20031;-83
2021/09/29 18:52:33;;;;;;;3.75;1.85;;;12.90;99.90;;;;;;6113890;29;20035;-83
2021/09/29 18:55:37;;;;;;;3.17;2.08;;;12.80;99.90;;;;;;6113845;29;20047;-84
2021/09/29 19:08:35;;;;;;;3.08;2.30;;;12.70;99.90;;;;;;6119020;29;20035;-80
2021/09/29 19:11:36;;;;;;;4.57;2.38;;;13.20;99.90;;;;;;6111379;29;20413;-83
2021/09/29 19:14:41;;;;;;;3.47;2.25;;;12.60;99.90;;;;;;6094229;29;20051;-81
2021/09/29 19:17:43;;;;;;;4.13;2.33;;;12.60;99.90;;;;;;6099354;29;20098;-83
2021/09/29 19:20:44;;;;;;;4.00;2.33;;;12.60;99.90;;;;;;6110470;29;20366;-83
2021/09/29 19:23:46;;;;;;;1.70;1.60;;;11.90;99.90;;;;;;6113109;29;20035;-83
2021/09/29 19:26:47;;;;;;;3.17;2.00;;;12.40;99.90;;;;;;6112641;29;20129;-82
2021/09/29 19:29:48;;;;;;;2.30;2.10;;;12.30;99.90;;;;;;6113270;29;20038;-87
2021/09/29 19:32:56;;;;;;;2.15;1.92;;;;;;;;;;6112797;29;20469;-84
2021/09/29 19:35:57;;;;;;;2.80;2.08;;;12.70;99.90;;;;;;6129785;29;20373;-84
2021/09/29 19:38:57;;;;;;;2.35;1.98;;;;;;;;;;6097955;29;20047;-84
2021/09/29 19:41:58;;;;;;;2.47;1.90;;;12.10;99.90;;;;;;6114099;29;20027;-84
2021/09/29 19:45:03;;;;;;;3.35;2.50;;;;;;;;;;6114255;29;20039;-84
2021/09/29 20:07:29;;;;;;;3.78;2.55;;;12.00;99.90;;;;;;6121395;29;20035;-86
2021/09/29 20:10:30;;;;;;;3.22;2.40;;;11.90;99.90;;;;;;6116564;29;20060;-87
2021/09/29 20:13:30;;;;;;;4.00;2.50;;;12.10;99.90;;;;;;6113227;29;20035;-86
2021/09/29 20:16:31;;;;;;;4.72;2.40;;;;;;;;;;6131992;29;20054;-88
2021/09/29 20:19:33;;;;;;;3.00;2.40;;;11.80;99.90;;;;;;6117427;29;20015;-87
2021/09/29 20:22:33;;;;;;;3.28;2.47;;;11.80;99.90;;;;;;6116627;29;20036;-89
2021/09/29 20:25:34;;;;;;;5.18;3.03;;;11.70;99.90;;;;;;6117247;29;20470;-87
2021/09/29 20:28:35;;;;;;;3.05;2.58;;;11.70;99.90;;;;;;6118805;29;20521;-88
2021/09/29 20:31:36;;;;;;;2.92;2.63;;;;;;;;;;6118511;29;20035;-85
2021/09/29 20:48:18;;;;;;;5.68;2.95;;;;;;;;;;6100264;29;20044;-87
2021/09/29 20:51:19;;;;;;;3.00;2.55;;;11.20;99.90;;;;;;6063844;29;20024;-84
2021/09/29 20:54:19;;;;;;;4.60;2.70;;;11.40;99.90;;;;;;6049864;29;20051;-84
2021/09/29 20:57:20;;;;;;;2.60;2.40;;;11.10;99.90;;;;;;6050482;29;20028;-85
2021/09/29 21:00:21;;;;;;;4.45;2.20;;;10.50;99.90;;;;;;6051328;29;20047;-84
2021/09/29 21:03:25;;;;;;;4.90;2.50;;;10.60;99.90;;;;;;6047718;29;20585;-86
2021/09/29 21:06:29;;;;;;;7.50;3.10;;;10.90;99.90;;;;;;6065624;29;20054;-86
2021/09/29 21:09:30;;;;;;;4.93;2.60;;;10.60;99.90;;;;;;6065227;29;20161;-83